Time;durP1;ratioP1;P1;durP2;ratioP2;P2;SDS_P1;SDS_P2;PMS_P1;PMS_P2;Temp;Humidity;BMP_temperature;BMP_pressure;BME280_temperature;BME280_humidity;BME280_pressure;Samples;Min_cycle;Max_cycle;Signal;HPM_P1;HPM_P2
2023/02/21 02:14:39;;;;;;;2.00;0.80;;;1.20;86.10;;;;;;2068197;28;20717;-65
2023/02/21 02:16:00;;;;;;;0.80;0.80;;;1.20;86.50;;;;;;2065626;28;20628;-64
2023/02/21 02:17:29;;;;;;;1.23;0.70;;;1.20;86.70;;;;;;2064685;28;20189;-64
2023/02/21 02:18:49;;;;;;;0.73;0.70;;;1.20;86.80;;;;;;2065557;28;20185;-66
2023/02/21 02:20:21;;;;;;;0.80;0.70;;;1.20;87.20;;;;;;2068157;28;20293;-64
2023/02/21 02:21:52;;;;;;;1.08;0.70;;;1.20;87.00;;;;;;2068383;28;20567;-64
2023/02/21 02:23:31;;;;;;;0.98;0.88;;;1.20;86.50;;;;;;2066159;28;20182;-64
2023/02/21 02:24:59;;;;;;;0.80;0.60;;;1.20;86.60;;;;;;2067966;28;20189;-64
2023/02/21 02:26:46;;;;;;;2.80;0.90;;;1.30;87.10;;;;;;2068141;28;20561;-65
2023/02/21 02:28:09;;;;;;;2.50;0.80;;;1.30;87.00;;;;;;2066083;28;20185;-65
2023/02/21 02:29:51;;;;;;;1.02;0.77;;;1.20;87.00;;;;;;2061580;28;20197;-64
2023/02/21 02:31:18;;;;;;;2.15;0.77;;;1.20;85.30;;;;;;2064912;28;20181;-64
2023/02/21 02:32:43;;;;;;;0.60;0.60;;;1.20;84.40;;;;;;2065145;28;20178;-64
2023/02/21 02:34:27;;;;;;;0.98;0.70;;;1.30;84.50;;;;;;2064836;28;20194;-64
2023/02/21 02:35:42;;;;;;;3.75;0.80;;;1.20;85.60;;;;;;2067708;28;20196;-64
2023/02/21 02:37:15;;;;;;;1.27;0.70;;;1.20;85.00;;;;;;2066043;28;20712;-64
2023/02/21 02:38:37;;;;;;;0.70;0.70;;;1.10;86.00;;;;;;2065833;28;20200;-64
2023/02/21 02:39:58;;;;;;;2.35;0.77;;;1.10;87.00;;;;;;2060821;28;20268;-64
2023/02/21 02:41:33;;;;;;;0.60;0.60;;;1.10;87.40;;;;;;2065034;28;20234;-64
2023/02/21 02:42:57;;;;;;;2.65;0.70;;;1.10;87.60;;;;;;2066060;28;20188;-64
2023/02/21 02:44:20;;;;;;;4.05;1.20;;;1.10;88.30;;;;;;2063630;28;20739;-64
2023/02/21 02:45:42;;;;;;;0.77;0.70;;;1.10;88.10;;;;;;2060593;28;20193;-64
2023/02/21 02:46:50;;;;;;;1.40;0.70;;;1.10;88.40;;;;;;2060050;28;20185;-64
2023/02/21 02:48:05;;;;;;;1.23;0.80;;;1.10;87.90;;;;;;2061419;28;20190;-64
2023/02/21 02:49:17;;;;;;;0.75;0.57;;;1.10;87.30;;;;;;2058902;28;20316;-64
2023/02/21 02:50:25;;;;;;;2.78;0.70;;;1.10;85.50;;;;;;2062122;28;20187;-64
2023/02/21 02:51:33;;;;;;;0.80;0.70;;;1.10;85.70;;;;;;2057964;28;20198;-64
2023/02/21 02:52:50;;;;;;;1.02;0.80;;;1.10;85.10;;;;;;2061268;28;20714;-64
2023/02/21 02:53:56;;;;;;;1.13;0.80;;;1.20;85.20;;;;;;2068228;28;20185;-64
2023/02/21 02:55:22;;;;;;;1.25;0.70;;;1.20;85.40;;;;;;2068393;28;20182;-64
2023/02/21 02:56:28;;;;;;;0.73;0.70;;;1.10;85.90;;;;;;2065518;28;20595;-65
2023/02/21 02:57:39;;;;;;;0.90;0.73;;;1.20;85.90;;;;;;2066447;28;20194;-65
2023/02/21 02:58:57;;;;;;;1.40;0.63;;;1.10;85.70;;;;;;2064605;28;20220;-64
2023/02/21 03:00:05;;;;;;;1.23;0.82;;;1.10;86.80;;;;;;2065983;28;20201;-64
2023/02/21 03:01:39;;;;;;;0.68;0.68;;;1.10;86.70;;;;;;2064741;28;20213;-64
2023/02/21 03:02:58;;;;;;;1.00;0.85;;;1.10;86.70;;;;;;2066335;28;20178;-64
2023/02/21 03:04:20;;;;;;;4.30;0.80;;;1.10;87.30;;;;;;2065239;28;20181;-64
2023/02/21 03:06:17;;;;;;;1.15;1.05;;;1.10;87.40;;;;;;2061232;28;20181;-63
2023/02/21 03:07:25;;;;;;;1.40;0.90;;;1.00;87.30;;;;;;2065805;28;20559;-64
2023/02/21 03:09:04;;;;;;;1.30;0.70;;;1.00;87.40;;;;;;2065597;28;20195;-64
2023/02/21 03:10:38;;;;;;;0.80;0.70;;;1.00;87.90;;;;;;2063661;28;20193;-64
2023/02/21 03:12:15;;;;;;;0.75;0.63;;;1.00;87.50;;;;;;2070207;28;20575;-64
2023/02/21 03:13:46;;;;;;;1.00;0.70;;;1.00;87.80;;;;;;2069779;28;20284;-64
2023/02/21 03:15:05;;;;;;;1.35;0.70;;;1.00;87.90;;;;;;2067979;28;20183;-64
2023/02/21 03:16:34;;;;;;;1.65;0.75;;;0.90;88.20;;;;;;2066029;28;20201;-64
2023/02/21 03:17:47;;;;;;;2.00;1.20;;;0.90;88.60;;;;;;2066984;28;20186;-64
2023/02/21 03:19:03;;;;;;;1.50;0.80;;;1.00;89.10;;;;;;2065081;28;20204;-64
2023/02/21 03:20:08;;;;;;;1.58;0.70;;;0.90;89.60;;;;;;2053745;28;20274;-64
2023/02/21 03:21:22;;;;;;;1.77;0.80;;;1.00;89.80;;;;;;2049302;28;20179;-64
2023/02/21 03:22:30;;;;;;;0.88;0.70;;;1.00;90.10;;;;;;2067839;28;20190;-63
2023/02/21 03:23:38;;;;;;;2.15;0.80;;;1.00;90.00;;;;;;2074532;28;20750;-64
2023/02/21 03:24:47;;;;;;;3.00;1.10;;;1.00;90.00;;;;;;2069904;28;20221;-64
2023/02/21 03:25:57;;;;;;;2.00;0.70;;;1.00;89.50;;;;;;2069699;28;21016;-64
2023/02/21 03:27:06;;;;;;;3.22;0.73;;;1.00;89.80;;;;;;2063142;28;20240;-64
2023/02/21 03:28:10;;;;;;;3.03;1.35;;;1.00;89.90;;;;;;2062665;28;20191;-64
2023/02/21 03:29:17;;;;;;;2.47;0.77;;;0.90;90.00;;;;;;2069562;28;20687;-64
2023/02/21 03:30:21;;;;;;;1.15;0.70;;;0.90;90.30;;;;;;2070521;28;20252;-64
2023/02/21 03:31:34;;;;;;;0.90;0.70;;;0.90;90.50;;;;;;2070389;28;20273;-64
2023/02/21 03:32:46;;;;;;;0.60;0.60;;;0.90;90.60;;;;;;2063541;28;20189;-64
2023/02/21 03:33:53;;;;;;;1.67;1.05;;;0.90;90.80;;;;;;2067658;28;20191;-64
2023/02/21 03:34:58;;;;;;;1.40;0.93;;;0.80;90.80;;;;;;2068272;28;20249;-64
2023/02/21 03:36:05;;;;;;;0.70;0.70;;;0.90;91.40;;;;;;2070194;28;20205;-64
2023/02/21 03:37:18;;;;;;;1.42;0.80;;;0.90;90.90;;;;;;2069468;28;20219;-64
2023/02/21 03:38:27;;;;;;;0.98;0.70;;;0.80;91.00;;;;;;2065714;28;20216;-64
2023/02/21 03:39:33;;;;;;;2.33;0.80;;;0.80;91.20;;;;;;2069835;28;20247;-64
2023/02/21 03:40:38;;;;;;;2.90;0.68;;;0.80;91.10;;;;;;2069241;28;20197;-64
2023/02/21 03:41:44;;;;;;;1.88;0.90;;;0.80;91.10;;;;;;2065746;28;20196;-64
2023/02/21 03:42:54;;;;;;;1.45;1.05;;;0.80;91.30;;;;;;2069183;28;20181;-64
2023/02/21 03:44:00;;;;;;;0.93;0.80;;;0.80;91.30;;;;;;2069350;28;20232;-64
2023/02/21 03:45:05;;;;;;;1.88;0.90;;;0.70;91.30;;;;;;2066031;28;20285;-64
2023/02/21 03:46:09;;;;;;;0.80;0.73;;;0.70;91.30;;;;;;2069997;28;20662;-64
2023/02/21 03:47:15;;;;;;;1.40;0.90;;;0.70;91.60;;;;;;2069905;28;20273;-64
2023/02/21 03:48:21;;;;;;;2.10;0.98;;;0.70;91.60;;;;;;2069839;28;20247;-64
2023/02/21 03:49:26;;;;;;;1.00;0.70;;;0.80;91.50;;;;;;2066647;28;20218;-64
2023/02/21 03:50:32;;;;;;;0.93;0.73;;;0.70;91.40;;;;;;2069941;28;20189;-64
2023/02/21 03:51:38;;;;;;;1.08;0.77;;;0.70;91.40;;;;;;2069840;28;20261;-64
2023/02/21 03:52:44;;;;;;;1.15;0.88;;;0.70;91.40;;;;;;2066477;28;20181;-64
2023/02/21 03:53:49;;;;;;;2.30;0.90;;;0.70;91.50;;;;;;2069798;28;20284;-64
2023/02/21 03:54:55;;;;;;;1.45;0.80;;;0.70;91.50;;;;;;2070010;28;20182;-63
2023/02/21 03:56:01;;;;;;;1.77;0.90;;;0.70;91.50;;;;;;2069822;28;20550;-64
2023/02/21 03:57:04;;;;;;;1.45;0.85;;;0.70;91.70;;;;;;2070231;28;20183;-63
2023/02/21 03:58:09;;;;;;;1.17;0.70;;;0.70;91.80;;;;;;2069908;28;20182;-64
2023/02/21 03:59:15;;;;;;;1.42;0.60;;;0.70;91.40;;;;;;2070109;28;20202;-64
2023/02/21 04:00:21;;;;;;;0.90;0.70;;;0.70;91.10;;;;;;2069805;28;20194;-64
2023/02/21 04:01:26;;;;;;;1.55;0.90;;;0.70;91.00;;;;;;2069868;28;20212;-64
2023/02/21 04:02:32;;;;;;;1.63;0.70;;;0.70;91.00;;;;;;2069716;28;20215;-65
2023/02/21 04:03:38;;;;;;;1.92;0.80;;;0.80;90.60;;;;;;2069859;28;20722;-64
2023/02/21 04:04:47;;;;;;;1.42;0.80;;;0.70;90.40;;;;;;2066524;28;20194;-64
2023/02/21 04:05:52;;;;;;;1.92;0.93;;;0.80;90.50;;;;;;2069631;28;20702;-64
2023/02/21 04:06:58;;;;;;;1.50;0.70;;;0.90;90.50;;;;;;2069913;28;20190;-64
2023/02/21 04:08:04;;;;;;;1.02;0.90;;;0.90;90.40;;;;;;2066077;28;20603;-65
2023/02/21 04:09:09;;;;;;;1.02;0.90;;;0.90;90.40;;;;;;2069600;28;20269;-64
2023/02/21 04:10:15;;;;;;;1.00;0.80;;;0.90;90.30;;;;;;2069823;28;20190;-64
2023/02/21 04:11:21;;;;;;;1.75;0.90;;;1.00;90.10;;;;;;2070094;28;20213;-64
2023/02/21 04:12:27;;;;;;;1.88;1.05;;;1.00;90.10;;;;;;2069885;28;20194;-64
2023/02/21 04:13:33;;;;;;;2.40;0.88;;;1.00;90.00;;;;;;2070195;28;20186;-63
2023/02/21 04:14:39;;;;;;;1.25;0.90;;;1.10;90.10;;;;;;2067008;28;20259;-64
2023/02/21 04:15:44;;;;;;;1.15;0.73;;;1.10;90.00;;;;;;2065946;28;20284;-65
2023/02/21 04:16:50;;;;;;;2.10;1.00;;;1.10;90.00;;;;;;2069650;28;20185;-64
2023/02/21 04:17:56;;;;;;;2.33;0.90;;;1.10;89.70;;;;;;2068829;28;20182;-64
2023/02/21 04:19:02;;;;;;;1.83;0.88;;;1.20;89.90;;;;;;2065199;28;20597;-64
2023/02/21 04:20:05;;;;;;;1.58;1.05;;;1.20;89.20;;;;;;2069709;28;20185;-64
2023/02/21 04:21:09;;;;;;;0.95;0.85;;;1.20;89.50;;;;;;2069391;28;20210;-64
2023/02/21 04:22:15;;;;;;;1.67;0.95;;;1.10;90.00;;;;;;2073393;28;20174;-64
2023/02/21 04:23:21;;;;;;;2.85;0.90;;;1.10;90.00;;;;;;2066190;28;20660;-64
2023/02/21 04:24:28;;;;;;;1.98;0.80;;;1.10;89.90;;;;;;2069765;28;20190;-64
2023/02/21 04:25:33;;;;;;;1.60;0.90;;;1.10;90.10;;;;;;2069468;28;20190;-64
2023/02/21 04:26:39;;;;;;;1.70;0.80;;;1.10;90.80;;;;;;2065768;28;20182;-64
2023/02/21 04:27:45;;;;;;;1.58;1.00;;;1.00;90.40;;;;;;2069522;28;20177;-64
2023/02/21 04:28:51;;;;;;;1.40;0.80;;;1.00;90.40;;;;;;2069682;28;20277;-64
2023/02/21 04:29:57;;;;;;;0.70;0.70;;;1.00;90.60;;;;;;2069388;28;20241;-64
2023/02/21 04:31:03;;;;;;;2.67;1.00;;;1.00;90.60;;;;;;2066638;28;20248;-64
2023/02/21 04:32:04;;;;;;;4.70;0.90;;;1.10;90.40;;;;;;2069720;28;20748;-64
2023/02/21 04:33:09;;;;;;;1.88;0.82;;;1.00;90.90;;;;;;2068972;28;20185;-64
2023/02/21 04:34:15;;;;;;;4.10;0.90;;;1.00;91.00;;;;;;2069373;28;20249;-63
2023/02/21 04:35:21;;;;;;;1.45;0.80;;;0.90;90.90;;;;;;2064660;28;20190;-64
2023/02/21 04:36:27;;;;;;;1.73;0.77;;;1.00;90.80;;;;;;2069046;28;20685;-64
2023/02/21 04:37:32;;;;;;;2.33;0.68;;;1.00;90.70;;;;;;2069421;28;20567;-64
2023/02/21 04:38:38;;;;;;;2.40;0.75;;;1.00;90.50;;;;;;2066070;28;20190;-64
2023/02/21 04:39:44;;;;;;;1.55;0.80;;;1.00;90.80;;;;;;2068999;28;20213;-64
2023/02/21 04:40:50;;;;;;;1.45;0.90;;;0.90;90.90;;;;;;2069172;28;20802;-64
2023/02/21 04:41:55;;;;;;;1.30;1.00;;;0.90;90.90;;;;;;2069554;28;20190;-67
2023/02/21 04:43:01;;;;;;;0.68;0.68;;;0.90;91.20;;;;;;2069812;28;20184;-64
2023/02/21 04:44:05;;;;;;;0.75;0.75;;;0.90;91.30;;;;;;2069878;28;20535;-64
2023/02/21 04:45:09;;;;;;;1.10;0.90;;;0.90;91.40;;;;;;2069206;28;20315;-64
2023/02/21 04:46:17;;;;;;;1.60;0.80;;;0.90;91.60;;;;;;2068878;28;20177;-64
2023/02/21 04:47:23;;;;;;;1.40;0.90;;;0.80;91.50;;;;;;2069588;28;20212;-64
2023/02/21 04:48:28;;;;;;;1.30;0.90;;;0.80;91.40;;;;;;2069189;28;20222;-64
2023/02/21 04:49:34;;;;;;;1.02;0.70;;;0.90;91.50;;;;;;2069519;28;20230;-64
2023/02/21 04:50:40;;;;;;;1.70;0.80;;;0.90;91.30;;;;;;2069765;28;20193;-64
2023/02/21 04:51:45;;;;;;;1.20;0.80;;;0.90;91.20;;;;;;2069971;28;20188;-64
2023/02/21 04:52:51;;;;;;;2.08;0.75;;;0.90;91.40;;;;;;2069828;28;20591;-64
2023/02/21 04:53:57;;;;;;;1.13;0.90;;;0.80;91.50;;;;;;2065898;28;20182;-64
2023/02/21 04:55:03;;;;;;;0.95;0.70;;;0.90;91.50;;;;;;2069318;28;20190;-65
2023/02/21 04:56:05;;;;;;;0.82;0.80;;;0.90;91.60;;;;;;2069382;28;20200;-65
2023/02/21 04:57:09;;;;;;;1.00;0.80;;;0.80;91.80;;;;;;2069239;28;20183;-64
2023/02/21 04:58:15;;;;;;;1.88;0.80;;;0.80;91.80;;;;;;2065555;28;20662;-64
2023/02/21 04:59:21;;;;;;;0.98;0.90;;;0.70;91.90;;;;;;2068742;28;20225;-64
2023/02/21 05:00:26;;;;;;;1.30;0.90;;;0.80;92.10;;;;;;2068830;28;20198;-64
2023/02/21 05:01:32;;;;;;;0.93;0.90;;;0.80;92.40;;;;;;2069507;28;20838;-64
2023/02/21 05:02:43;;;;;;;1.70;0.95;;;0.70;92.50;;;;;;2069109;28;20241;-64
2023/02/21 05:03:48;;;;;;;1.38;0.80;;;0.70;92.70;;;;;;2069173;28;20190;-64
2023/02/21 05:04:54;;;;;;;2.17;0.80;;;0.70;92.60;;;;;;2069358;28;20186;-64
2023/02/21 05:06:00;;;;;;;3.17;1.38;;;0.70;92.40;;;;;;2063837;28;20695;-64
2023/02/21 05:07:05;;;;;;;1.85;1.00;;;0.70;92.30;;;;;;2066608;28;20274;-64
2023/02/21 05:08:09;;;;;;;1.95;1.17;;;0.70;92.60;;;;;;2071306;28;20547;-64
2023/02/21 05:09:15;;;;;;;3.08;0.90;;;0.70;92.80;;;;;;2065563;28;20272;-64
2023/02/21 05:10:21;;;;;;;0.90;0.80;;;0.60;92.80;;;;;;2069275;28;20236;-64
2023/02/21 05:11:27;;;;;;;1.75;0.90;;;0.60;92.90;;;;;;2069483;28;20278;-64
2023/02/21 05:12:32;;;;;;;1.27;0.80;;;0.60;93.20;;;;;;2069383;28;20325;-64
2023/02/21 05:13:38;;;;;;;1.17;0.90;;;0.60;93.20;;;;;;2069618;28;20186;-64
2023/02/21 05:14:44;;;;;;;2.30;0.90;;;0.60;93.50;;;;;;2069423;28;20618;-64
2023/02/21 05:15:50;;;;;;;1.73;0.90;;;0.60;93.90;;;;;;2069280;28;20235;-64
2023/02/21 05:16:55;;;;;;;1.92;0.90;;;0.60;94.00;;;;;;2065675;28;20187;-64
2023/02/21 05:18:01;;;;;;;1.00;0.80;;;0.60;94.20;;;;;;2068912;28;20189;-64
2023/02/21 05:19:04;;;;;;;1.00;0.85;;;0.60;94.30;;;;;;2068728;28;20219;-64
2023/02/21 05:20:10;;;;;;;3.08;1.05;;;0.60;94.40;;;;;;2069108;28;20171;-64
2023/02/21 05:21:18;;;;;;;2.20;0.90;;;0.60;94.60;;;;;;2065949;28;20270;-64
2023/02/21 05:22:24;;;;;;;2.05;0.65;;;0.60;94.60;;;;;;2069018;28;20659;-64
2023/02/21 05:23:34;;;;;;;2.03;0.75;;;0.60;94.50;;;;;;2069135;28;20206;-64
2023/02/21 05:24:41;;;;;;;1.75;0.80;;;0.60;94.70;;;;;;2066351;28;20189;-64
2023/02/21 05:25:47;;;;;;;1.13;0.93;;;0.60;95.00;;;;;;2069019;28;20187;-64
2023/02/21 05:26:53;;;;;;;2.92;0.85;;;0.60;95.10;;;;;;2069043;28;20714;-64
2023/02/21 05:27:59;;;;;;;1.15;0.90;;;0.60;95.20;;;;;;2068876;28;20201;-64
2023/02/21 05:29:04;;;;;;;1.85;1.17;;;0.60;95.20;;;;;;2069236;28;20273;-64
2023/02/21 05:30:10;;;;;;;1.52;0.90;;;0.60;95.10;;;;;;2069164;28;20182;-64
2023/02/21 05:31:16;;;;;;;1.52;1.00;;;0.60;95.30;;;;;;2065415;28;20553;-64
2023/02/21 05:32:22;;;;;;;2.10;0.90;;;0.60;95.20;;;;;;2068992;28;20190;-64
2023/02/21 05:33:28;;;;;;;0.95;0.70;;;0.60;95.10;;;;;;2068921;28;20197;-64
2023/02/21 05:34:33;;;;;;;1.13;1.02;;;0.60;95.30;;;;;;2065153;28;20198;-64
2023/02/21 05:35:39;;;;;;;1.88;1.17;;;0.60;95.50;;;;;;2068835;28;20178;-64
2023/02/21 05:36:45;;;;;;;2.03;1.60;;;0.50;95.60;;;;;;2068850;28;20670;-64
2023/02/21 05:37:51;;;;;;;1.10;1.00;;;0.50;95.70;;;;;;2068672;28;20289;-64
2023/02/21 05:38:57;;;;;;;1.35;1.20;;;0.50;95.60;;;;;;2065730;28;20641;-64
2023/02/21 05:40:04;;;;;;;0.98;0.80;;;0.50;95.70;;;;;;2068747;28;20567;-64
2023/02/21 05:41:09;;;;;;;1.20;1.00;;;0.50;95.80;;;;;;2068869;28;20214;-64
2023/02/21 05:42:15;;;;;;;2.10;1.10;;;0.50;95.70;;;;;;2065271;28;20178;-64
2023/02/21 05:43:21;;;;;;;2.75;1.00;;;0.50;95.90;;;;;;2068869;28;20547;-64
2023/02/21 05:44:27;;;;;;;2.28;1.02;;;0.50;96.00;;;;;;2068738;28;20193;-64
2023/02/21 05:45:32;;;;;;;1.58;1.10;;;0.50;96.00;;;;;;2069239;28;20671;-64
2023/02/21 05:46:38;;;;;;;2.45;1.13;;;0.50;96.00;;;;;;2068958;28;20820;-64
2023/02/21 05:47:43;;;;;;;2.05;1.08;;;0.60;96.20;;;;;;2068923;28;20196;-64
2023/02/21 05:48:49;;;;;;;3.35;1.23;;;0.60;96.50;;;;;;2069038;28;20208;-64
2023/02/21 05:49:54;;;;;;;1.67;1.00;;;0.50;96.50;;;;;;2065239;28;20224;-64
2023/02/21 05:51:00;;;;;;;4.60;1.60;;;0.50;96.80;;;;;;2068660;28;20192;-64
2023/02/21 05:52:05;;;;;;;1.77;1.60;;;0.50;96.70;;;;;;2068717;28;20560;-64
2023/02/21 05:53:09;;;;;;;2.30;1.20;;;0.50;96.60;;;;;;2068030;28;20655;-64
2023/02/21 05:54:18;;;;;;;2.83;1.52;;;0.50;96.40;;;;;;2065039;28;20173;-64
2023/02/21 05:55:21;;;;;;;1.88;1.58;;;0.50;96.20;;;;;;2068750;28;20661;-64
2023/02/21 05:56:27;;;;;;;1.42;1.33;;;0.50;96.00;;;;;;2068803;28;20194;-64
2023/02/21 05:57:38;;;;;;;3.00;1.63;;;0.50;95.90;;;;;;2065006;28;20181;-64
2023/02/21 05:58:42;;;;;;;2.47;1.30;;;0.40;96.00;;;;;;2068525;28;20178;-64
2023/02/21 05:59:47;;;;;;;1.48;1.00;;;0.40;96.10;;;;;;2068633;28;20217;-64
2023/02/21 06:00:53;;;;;;;1.77;1.25;;;0.40;96.10;;;;;;2064966;28;20185;-64
2023/02/21 06:01:58;;;;;;;2.60;1.42;;;0.40;96.20;;;;;;2068727;28;20190;-64
2023/02/21 06:03:04;;;;;;;1.65;1.05;;;0.30;96.40;;;;;;2068687;28;20284;-64
2023/02/21 06:04:10;;;;;;;2.88;1.30;;;0.30;96.70;;;;;;2068821;28;20561;-64
2023/02/21 06:05:14;;;;;;;2.58;0.90;;;0.40;97.10;;;;;;2065409;28;20181;-64
2023/02/21 06:06:20;;;;;;;1.75;1.10;;;0.30;97.30;;;;;;2068855;28;20188;-64
2023/02/21 06:07:21;;;;;;;2.85;1.00;;;0.30;97.80;;;;;;2068655;28;20190;-64
2023/02/21 06:08:26;;;;;;;1.90;1.20;;;0.30;98.00;;;;;;2068547;28;20270;-64
2023/02/21 06:09:32;;;;;;;1.95;1.05;;;0.30;97.80;;;;;;2065231;28;20304;-64
2023/02/21 06:10:37;;;;;;;1.83;1.13;;;0.30;98.10;;;;;;2068194;28;20224;-64
2023/02/21 06:11:43;;;;;;;1.92;1.20;;;0.30;98.10;;;;;;2068158;28;20788;-64
2023/02/21 06:12:48;;;;;;;1.73;1.00;;;0.30;98.00;;;;;;2068938;28;20198;-64
2023/02/21 06:13:58;;;;;;;2.22;1.10;;;0.30;97.80;;;;;;2068924;28;20573;-64
2023/02/21 06:15:00;;;;;;;1.00;0.80;;;0.30;97.90;;;;;;2065855;28;20198;-64
2023/02/21 06:16:05;;;;;;;1.63;0.98;;;0.30;97.90;;;;;;2068199;28;20289;-63
2023/02/21 06:17:09;;;;;;;2.25;0.90;;;0.30;98.10;;;;;;2064995;28;20565;-64
2023/02/21 06:18:15;;;;;;;1.85;1.10;;;0.30;97.90;;;;;;2068371;28;20239;-64
2023/02/21 06:19:20;;;;;;;1.50;0.98;;;0.30;98.10;;;;;;2068370;28;20297;-64
2023/02/21 06:20:26;;;;;;;1.45;0.88;;;0.30;98.40;;;;;;2068740;28;20277;-64
2023/02/21 06:21:32;;;;;;;1.67;1.02;;;0.20;98.50;;;;;;2068830;28;20642;-64
2023/02/21 06:22:37;;;;;;;3.15;1.38;;;0.20;98.50;;;;;;2068937;28;20715;-64
2023/02/21 06:23:42;;;;;;;2.25;1.27;;;0.20;98.60;;;;;;2068894;28;20909;-64
2023/02/21 06:24:48;;;;;;;3.40;2.20;;;0.30;98.80;;;;;;2065047;28;20193;-64
2023/02/21 06:25:53;;;;;;;2.22;1.50;;;0.30;98.30;;;;;;2068542;28;20277;-64
2023/02/21 06:26:59;;;;;;;4.15;1.58;;;0.30;98.00;;;;;;2068721;28;20198;-64
2023/02/21 06:28:04;;;;;;;3.50;1.58;;;0.30;97.80;;;;;;2068252;28;20201;-64
2023/02/21 06:29:10;;;;;;;2.28;1.80;;;0.40;97.60;;;;;;2068827;28;20206;-64
2023/02/21 06:30:15;;;;;;;6.15;2.20;;;0.40;97.50;;;;;;2068918;28;20671;-64
2023/02/21 06:31:21;;;;;;;4.20;2.08;;;0.40;97.10;;;;;;2068887;28;20269;-64
2023/02/21 06:32:26;;;;;;;3.95;2.70;;;0.40;96.90;;;;;;2065657;28;20221;-64
2023/02/21 06:33:33;;;;;;;5.13;2.33;;;0.40;97.00;;;;;;2070436;28;20253;-64
2023/02/21 06:34:37;;;;;;;10.60;2.30;;;0.50;97.10;;;;;;2067841;28;20621;-64
2023/02/21 06:35:43;;;;;;;7.18;2.63;;;0.40;96.90;;;;;;2069097;28;20305;-64
2023/02/21 06:36:53;;;;;;;6.20;2.50;;;0.50;96.90;;;;;;2065286;28;20181;-64
2023/02/21 06:37:57;;;;;;;3.67;2.38;;;0.50;97.10;;;;;;2067674;28;20248;-64
2023/02/21 06:39:03;;;;;;;5.50;2.70;;;0.50;97.00;;;;;;2067826;28;20290;-64
2023/02/21 06:40:05;;;;;;;4.65;2.47;;;0.50;96.90;;;;;;2064651;28;20189;-64
2023/02/21 06:41:09;;;;;;;5.53;2.25;;;0.50;97.20;;;;;;2068500;28;20200;-64
2023/02/21 06:42:17;;;;;;;5.60;2.33;;;0.50;97.30;;;;;;2068382;28;20232;-64
2023/02/21 06:43:21;;;;;;;3.88;2.15;;;0.50;97.60;;;;;;2068438;28;20688;-64
2023/02/21 06:44:26;;;;;;;1.85;1.40;;;0.50;97.80;;;;;;2065126;28;20566;-64
2023/02/21 06:45:32;;;;;;;4.07;1.83;;;0.50;98.20;;;;;;2068456;28;20215;-64
2023/02/21 06:46:37;;;;;;;2.50;1.50;;;0.60;98.30;;;;;;2068441;28;20209;-64
2023/02/21 06:47:43;;;;;;;2.83;1.52;;;0.50;98.30;;;;;;2064441;28;20685;-64
2023/02/21 06:48:49;;;;;;;3.03;1.55;;;0.60;98.60;;;;;;2068335;28;20194;-64
2023/02/21 06:49:54;;;;;;;2.30;1.27;;;0.60;98.50;;;;;;2068289;28;20255;-64
2023/02/21 06:50:59;;;;;;;2.80;1.40;;;0.70;98.20;;;;;;2068299;28;20193;-64
2023/02/21 06:52:05;;;;;;;3.22;1.70;;;0.70;98.10;;;;;;2065016;28;20182;-64
2023/02/21 06:53:09;;;;;;;1.63;1.02;;;0.80;97.80;;;;;;2068281;28;20205;-64
2023/02/21 06:54:15;;;;;;;2.65;1.40;;;0.80;97.50;;;;;;2067931;28;20241;-64
2023/02/21 06:55:22;;;;;;;2.42;1.30;;;0.80;97.50;;;;;;2068161;28;20265;-64
2023/02/21 06:56:27;;;;;;;2.72;1.65;;;0.70;97.60;;;;;;2068191;28;20266;-64
2023/02/21 06:57:32;;;;;;;1.52;1.25;;;0.80;97.60;;;;;;2068010;28;20237;-64
2023/02/21 06:58:38;;;;;;;3.25;1.20;;;0.80;97.50;;;;;;2069703;28;20216;-64
2023/02/21 06:59:43;;;;;;;1.30;1.15;;;0.80;97.60;;;;;;2066519;28;20651;-64
2023/02/21 07:00:49;;;;;;;4.10;1.20;;;0.80;97.40;;;;;;2070092;28;20196;-64
2023/02/21 07:01:55;;;;;;;4.15;1.60;;;0.80;97.40;;;;;;2070003;28;20178;-64
2023/02/21 07:03:00;;;;;;;2.58;1.42;;;0.80;97.20;;;;;;2070219;28;20301;-64
2023/02/21 07:04:04;;;;;;;1.88;1.45;;;0.80;97.20;;;;;;2070444;28;20674;-64
2023/02/21 07:05:10;;;;;;;1.67;1.10;;;0.80;97.20;;;;;;2069595;28;20203;-64
2023/02/21 07:06:15;;;;;;;1.40;1.10;;;0.90;97.40;;;;;;2062875;28;20170;-64
2023/02/21 07:07:20;;;;;;;1.65;1.10;;;0.80;97.40;;;;;;2065723;28;20285;-64
2023/02/21 07:08:26;;;;;;;1.85;1.35;;;0.80;97.60;;;;;;2069898;28;20213;-64
2023/02/21 07:09:31;;;;;;;2.53;1.30;;;0.90;97.60;;;;;;2069911;28;20232;-64
2023/02/21 07:10:37;;;;;;;1.73;1.08;;;0.90;97.50;;;;;;2070094;28;20182;-65
2023/02/21 07:11:45;;;;;;;1.95;1.10;;;0.90;97.50;;;;;;2063592;28;20183;-64
2023/02/21 07:12:48;;;;;;;1.88;1.10;;;0.90;97.60;;;;;;2070000;28;20186;-64
2023/02/21 07:13:57;;;;;;;3.67;1.25;;;0.90;97.80;;;;;;2069997;28;20690;-65
2023/02/21 07:15:01;;;;;;;3.40;1.20;;;0.90;97.80;;;;;;2066494;28;20201;-64
2023/02/21 07:16:05;;;;;;;2.15;1.30;;;1.00;97.80;;;;;;2069768;28;20205;-64
2023/02/21 07:17:09;;;;;;;1.42;1.20;;;1.00;97.70;;;;;;2069909;28;20321;-64
2023/02/21 07:18:15;;;;;;;2.28;1.30;;;1.00;98.00;;;;;;2069745;28;20703;-64
2023/02/21 07:19:20;;;;;;;2.97;1.20;;;1.00;98.00;;;;;;2066475;28;20648;-64
2023/02/21 07:20:26;;;;;;;4.55;1.40;;;1.00;97.70;;;;;;2069370;28;20312;-64
2023/02/21 07:21:32;;;;;;;2.67;1.63;;;1.10;97.70;;;;;;2069527;28;20229;-64
2023/02/21 07:22:37;;;;;;;1.70;1.38;;;1.10;97.60;;;;;;2070153;28;20189;-64
2023/02/21 07:23:44;;;;;;;2.35;1.20;;;1.10;97.40;;;;;;2070415;28;20178;-64
2023/02/21 07:24:48;;;;;;;2.60;1.40;;;1.10;97.40;;;;;;2069787;28;20195;-64
2023/02/21 07:25:54;;;;;;;2.58;1.15;;;1.10;97.40;;;;;;2069510;28;20186;-64
2023/02/21 07:26:59;;;;;;;2.63;1.20;;;1.20;97.30;;;;;;2066727;28;20284;-64
2023/02/21 07:28:04;;;;;;;1.20;0.95;;;1.10;97.30;;;;;;2069635;28;20174;-64
2023/02/21 07:29:09;;;;;;;1.85;1.08;;;1.20;97.20;;;;;;2069802;28;20273;-64
2023/02/21 07:30:16;;;;;;;1.60;1.30;;;1.20;97.00;;;;;;2069968;28;20592;-64
2023/02/21 07:31:21;;;;;;;1.88;1.30;;;1.20;97.20;;;;;;2070212;28;20673;-64
2023/02/21 07:32:26;;;;;;;1.17;0.98;;;1.20;97.20;;;;;;2070262;28;20206;-64
2023/02/21 07:33:32;;;;;;;1.65;1.13;;;1.30;97.00;;;;;;2070228;28;20613;-64
2023/02/21 07:34:37;;;;;;;1.42;1.20;;;1.30;96.90;;;;;;2066212;28;20194;-64
2023/02/21 07:35:43;;;;;;;2.15;1.23;;;1.40;96.90;;;;;;2069870;28;20202;-64
2023/02/21 07:36:49;;;;;;;1.50;1.10;;;1.40;96.80;;;;;;2069104;28;20274;-64
2023/02/21 07:37:54;;;;;;;1.90;1.13;;;1.40;96.90;;;;;;2069310;28;20202;-64
2023/02/21 07:38:59;;;;;;;2.30;1.00;;;1.50;96.70;;;;;;2069942;28;20198;-64
2023/02/21 07:40:08;;;;;;;1.17;1.00;;;1.50;96.60;;;;;;2070340;28;20202;-64
2023/02/21 07:41:09;;;;;;;1.90;1.30;;;1.50;96.60;;;;;;2069367;28;20578;-64
2023/02/21 07:42:15;;;;;;;1.92;1.58;;;1.60;96.50;;;;;;2065535;28;20175;-64
2023/02/21 07:43:20;;;;;;;2.60;1.33;;;1.60;95.80;;;;;;2069971;28;20706;-64
2023/02/21 07:44:26;;;;;;;4.55;1.30;;;1.70;95.20;;;;;;2069832;28;20192;-64
2023/02/21 07:45:32;;;;;;;2.58;1.52;;;1.70;95.00;;;;;;2069588;28;20198;-64
2023/02/21 07:46:40;;;;;;;3.15;1.60;;;1.80;94.40;;;;;;2065861;28;20202;-64
2023/02/21 07:47:44;;;;;;;1.65;1.35;;;1.90;94.00;;;;;;2068559;28;20642;-64
2023/02/21 07:48:50;;;;;;;3.83;1.45;;;1.90;93.60;;;;;;2069731;28;20246;-64
2023/02/21 07:49:56;;;;;;;3.80;1.30;;;2.00;93.20;;;;;;2066175;28;20212;-64
2023/02/21 07:51:01;;;;;;;2.28;1.45;;;2.00;92.80;;;;;;2069548;28;20672;-64
2023/02/21 07:52:05;;;;;;;2.55;1.85;;;2.10;92.60;;;;;;2069661;28;20178;-64
2023/02/21 07:53:11;;;;;;;3.88;1.63;;;2.20;92.50;;;;;;2069729;28;20189;-64
2023/02/21 07:54:16;;;;;;;5.05;1.63;;;2.20;92.20;;;;;;2066371;28;20182;-64
2023/02/21 07:55:21;;;;;;;3.35;1.52;;;2.30;91.90;;;;;;2068893;28;20201;-64
2023/02/21 07:56:26;;;;;;;2.10;1.40;;;2.30;92.10;;;;;;2069190;28;20184;-64
2023/02/21 07:57:32;;;;;;;2.30;1.48;;;2.40;92.20;;;;;;2065582;28;20198;-64
2023/02/21 07:58:37;;;;;;;2.72;1.35;;;2.40;91.80;;;;;;2069397;28;20242;-64
2023/02/21 07:59:43;;;;;;;3.53;1.63;;;2.50;91.70;;;;;;2069506;28;20225;-64
2023/02/21 08:00:48;;;;;;;4.60;1.63;;;2.50;91.50;;;;;;2069622;28;20248;-64
2023/02/21 08:01:54;;;;;;;2.47;1.60;;;2.50;91.30;;;;;;2066288;28;20198;-64
2023/02/21 08:03:00;;;;;;;3.40;1.60;;;2.60;91.10;;;;;;2069610;28;20190;-64
2023/02/21 08:04:04;;;;;;;4.28;1.27;;;2.60;90.80;;;;;;2069537;28;20300;-64
2023/02/21 08:05:09;;;;;;;3.70;2.05;;;2.70;90.90;;;;;;2069834;28;20267;-67
2023/02/21 08:06:15;;;;;;;4.50;1.95;;;2.70;90.60;;;;;;2069850;28;20551;-67
2023/02/21 08:07:20;;;;;;;4.15;2.30;;;2.70;89.80;;;;;;2069989;28;20188;-68
2023/02/21 08:08:26;;;;;;;4.60;2.47;;;2.80;89.20;;;;;;2069307;28;20183;-66
2023/02/21 08:09:32;;;;;;;4.43;2.08;;;2.90;88.90;;;;;;2065969;28;20230;-65
2023/02/21 08:10:37;;;;;;;5.28;2.03;;;3.00;88.70;;;;;;2068966;28;20188;-65
2023/02/21 08:11:43;;;;;;;4.22;1.95;;;3.10;87.70;;;;;;2071021;28;20197;-65
2023/02/21 08:12:48;;;;;;;3.65;2.15;;;3.10;86.80;;;;;;2069260;28;20196;-65
2023/02/21 08:13:54;;;;;;;3.65;1.73;;;3.20;85.30;;;;;;2068686;28;20196;-65
2023/02/21 08:14:59;;;;;;;4.75;2.20;;;3.30;83.80;;;;;;2067961;28;21004;-65